Racecast

Ashley Wagenhauser

Temperance Bedford (MI) · 12 · SECMI D1MONROE · Compare head to head

Athlete rating 130.1 2016 XC season
Best race 137.1 XC
Races 53
Seasons 6 2011 — 2016

RankedNation #8237·MI #1158·MI D1 #734·SEC #79·Team #29 ?

Rating scale ?

Cross Country

2016 XC 122.4

Temperance Bedford (MI) · Grade 12

Date Meet Event Result Place Rating Difficulty PR/SR Flags
2016-10-20 Hudson Mills Metropark - OFFICIAL 5000m 21:58.7 25th · 5th on team 122.0 +0.036
2016-10-15 Hudson Mills Metropark - OFFICIAL 5000m 21:18.7 38th · 3rd on team 127.1 +0.036 ★CR CSR
2016-10-01 Pearson's Metro Park 5000m 21:20.6 29th · 3rd on team 118.7 -0.022 ★CR CSR
2016-09-24 Ella Sharp Park OFFICIAL 5000m 20:52.1 80th · 2nd on team 129.2 +0.038 ★PR ★CR SR CSR RSR
2016-09-17 Springfield Oaks County Park OFFICIAL 5000m 23:27 71st · 3rd on team 121.5 +0.067 ★CR CSR
2016-09-13 Heritage Park (Adrian) OFFICIAL 5000m 22:27.1 5th · 1st on team 125.7 +0.084 SR CSR RSR
2016-08-27 Boy Scout Camp Lakota 5000m 22:30.5 20th · 3rd on team 114.9 -0.003 ★CR SR CSR
2016-08-25 Heritage Park (Adrian) OFFICIAL 5000m 23:26.3 27th · 3rd on team 120.3 +0.084 SR CSR RSR

2015 XC 118.3

Temperance Bedford (MI) · Grade 11

Date Meet Event Result Place Rating Difficulty PR/SR Flags
2015-10-03 Pearson's Metro Park 5000m 22:31.3 9th · 9th on team 112.3 -0.022 CR CSR
2015-09-10 Munson Park 5000m 21:54.6 42nd · 2nd on team 124.7 +0.054 PR ★CR SR CSR RSR
2015-08-29 Boy Scout Camp Lakota 5000m 22:48.83 32nd · 5th on team 112.3 -0.003 CR CSR
2015-08-27 Heritage Park (Adrian) OFFICIAL 5000m 22:12.1 11th · 2nd on team 123.9 +0.084 PR ★CR SR CSR RSR

2012 XC 111.5

Temperance Bedford (MI) · Grade 8

Date Meet Event Result Place Rating Difficulty PR/SR Flags
2012-10-20 Hudson Mills Metropark - OFFICIAL 2414m 13:14.5 37th · 2nd on team 101.4 +0.025 ★PR ★CR SR CSR
2012-10-06 Portage West MS 1931m 10:03.9 4th · 1st on team 103.3 ★PR ★CR SR CSR
2012-09-29 Pearson's Metro Park 2253m 13:00.5 6th · 2nd on team 95.5 ★PR ★CR SR CSR
2012-09-26 Hudson Mills Metropark - OFFICIAL 2655m 13:33.8 4th · 2nd on team 107.8 ★PR ★CR SR CSR
2012-09-12 Tecumseh HS 3218m 14:33.9 5th · 2nd on team 132.0 +0.036 ★PR ★CR SR CSR RSR
2012-08-27 Race Way Park 3200m 14:10.5 1st · 1st on team 129.3 +0.005 ★CR SR CSR RSR

2011 XC 117.1

Temperance Bedford (MI) · Grade 7

Date Meet Event Result Place Rating Difficulty PR/SR Flags
2011-10-22 Willow Metropark OFFICIAL 2414m 13:47.5 32nd · 3rd on team 97.4 +0.076 PR ★CR SR CSR
2011-10-12 Munson Park 3200m 13:55.9 15th · 4th on team 135.4 +0.034 ★PR ★CR SR CSR
2011-10-08 Portage West MS 2172m 10:49.6 86th · 4th on team 112.7 ★PR ★CR SR CSR
2011-09-28 Hudson Mills Metropark - OFFICIAL 3200m 14:14 19th · 5th on team 136.4 +0.062 PR ★CR SR CSR
2011-09-14 Rolling Hills 3200m 14:36.2 15th · 4th on team 137.1 +0.077 PR ★CR ★R SR CSR RSR
2011-09-10 Hedges Boyer Park 2172m 14:11.6 65th · 3rd on team 83.7 PR ★CR R SR CSR RSR

Track & Field

2015 TF

Temperance Bedford (MI) · Grade 10

Date Meet Event Result Place Rating Difficulty PR/SR Flags
2015-05-15 MHSAA LP Regional 03-1 @ Saline 200m 27.89 35th · 4th on team -0.042 SR
2015-05-15 MHSAA LP Regional 03-1 @ Saline 200m 27.74 32nd · 3rd on team -0.042 SR
2015-05-07 SEC: Red Division Finals 400m 1:05.57 12th · 2nd on team -0.032
2015-05-07 SEC: Red Division Finals 200m 28.09 9th · 2nd on team -0.032
2015-04-25 Whitmore Lake HS Invite 200m 28.31 4th · 4th on team -0.029 SR
2015-04-25 Whitmore Lake HS Invite 400m 1:04.84 4th · 1st on team -0.029
2015-04-25 Whitmore Lake HS Invite 200m 27.95 3rd · 3rd on team -0.029 SR
2015-04-21 SEC: Bedford @ Pioneer 400m 1:05.92 5th · 2nd on team -0.028
2015-04-21 SEC: Bedford @ Pioneer 200m 28.5 4th · 2nd on team -0.028 SR
2015-04-16 Springfield Invitational 400m 1:04.48 5th · 1st on team -0.029 SR

2014 TF

Temperance Bedford (MI) · Grade 9

Date Meet Event Result Place Rating Difficulty PR/SR Flags
2014-05-23 Dundee Beck Freshman Invitational 400m 1:01.74 1st · 1st on team -0.022
2014-05-23 Dundee Beck Freshman Invitational 200m 27.64 1st · 1st on team -0.022
2014-05-23 Dundee Beck Freshman Invitational 100m 13.54 1st · 1st on team -0.022 ★PR SR
2014-05-16 MHSAA Regional 3-1 @ Saline lj 13-07.50 -0.042
2014-05-16 MHSAA Regional 3-1 @ Saline 400m 59.98 5th · 1st on team -0.042
2014-05-09 SEC Championships lj 15-04.50 -0.032
2014-05-09 SEC Championships 400m 59.98 3rd · 1st on team -0.032 PR SR
2014-05-06 Saline Quad lj 15-10.50 -0.042
2014-05-06 Saline Quad 400m 1:01.81 4th · 1st on team -0.042 PR SR
2014-04-17 Springfield Invitational lj 15-07.00 -0.029
2014-04-17 Springfield Invitational 400m 1:04.12 1st · 1st on team -0.029 PR SR
2014-04-11 Whitmer Golden W Invitational lj 15-02.00 -0.040
2014-04-11 Whitmer Golden W Invitational 200m 27.9 2nd · 1st on team -0.040
2014-04-04 Knight Warm-Up lj 15-04.50 -0.043
2014-04-04 Knight Warm-Up 200m 27.64 5th · 1st on team -0.043 SR
2014-04-04 Knight Warm-Up 200m 28.04 7th · 2nd on team -0.043

2013 TF

Temperance Bedford (MI) · Grade 8

Date Meet Event Result Place Rating Difficulty PR/SR Flags
2013-05-10 Saline MS Hornet Relays lj 13-10.00 -0.042
2013-05-09 Bedford vs Lincoln lj 13' 8" -0.033
2013-05-09 Bedford vs Lincoln 200m 27.44 1st · 1st on team -0.033 ★PR SR